sensor_id;sensor_type;location;lat;lon;timestamp;pressure;altitude;pressure_sealevel;temperature;humidity
12676;BME280;63820;65.654;21.944;2023-02-13T00:02:32;99901.53;;;3.14;90.17
12676;BME280;63820;65.654;21.944;2023-02-13T00:05:17;99892.59;;;3.31;88.26
12676;BME280;63820;65.654;21.944;2023-02-13T00:08:01;99880.72;;;3.26;87.68
12676;BME280;63820;65.654;21.944;2023-02-13T00:10:46;99856.69;;;3.27;87.47
12676;BME280;63820;65.654;21.944;2023-02-13T00:13:32;99848.09;;;3.28;86.57
12676;BME280;63820;65.654;21.944;2023-02-13T00:16:17;99858.22;;;3.35;84.97
12676;BME280;63820;65.654;21.944;2023-02-13T00:19:02;99850.41;;;3.39;85.04
12676;BME280;63820;65.654;21.944;2023-02-13T00:21:46;99848.72;;;3.38;84.65
12676;BME280;63820;65.654;21.944;2023-02-13T00:24:30;99854.63;;;3.42;85.32
12676;BME280;63820;65.654;21.944;2023-02-13T00:27:14;99860.00;;;3.33;85.57
12676;BME280;63820;65.654;21.944;2023-02-13T00:29:59;99877.25;;;3.27;86.16
12676;BME280;63820;65.654;21.944;2023-02-13T00:32:43;99893.28;;;3.39;84.61
12676;BME280;63820;65.654;21.944;2023-02-13T00:35:27;99896.75;;;3.36;86.38
12676;BME280;63820;65.654;21.944;2023-02-13T00:38:11;99892.88;;;3.18;87.49
12676;BME280;63820;65.654;21.944;2023-02-13T00:40:55;99909.94;;;3.22;85.75
12676;BME280;63820;65.654;21.944;2023-02-13T00:43:39;99909.84;;;3.25;84.95
12676;BME280;63820;65.654;21.944;2023-02-13T00:46:23;99905.69;;;3.20;87.18
12676;BME280;63820;65.654;21.944;2023-02-13T00:49:07;99902.88;;;2.93;88.75
12676;BME280;63820;65.654;21.944;2023-02-13T00:51:52;99909.69;;;2.96;89.52
12676;BME280;63820;65.654;21.944;2023-02-13T00:54:36;99903.13;;;2.83;92.04
12676;BME280;63820;65.654;21.944;2023-02-13T00:57:20;99912.13;;;3.02;87.99
12676;BME280;63820;65.654;21.944;2023-02-13T01:00:05;99906.19;;;2.99;89.91
12676;BME280;63820;65.654;21.944;2023-02-13T01:02:49;99896.31;;;2.80;92.17
12676;BME280;63820;65.654;21.944;2023-02-13T01:05:34;99904.31;;;2.67;92.82
12676;BME280;63820;65.654;21.944;2023-02-13T01:08:19;99871.66;;;2.72;91.13
12676;BME280;63820;65.654;21.944;2023-02-13T01:11:03;99887.00;;;2.76;93.18
12676;BME280;63820;65.654;21.944;2023-02-13T01:13:47;99881.63;;;2.87;91.02
12676;BME280;63820;65.654;21.944;2023-02-13T01:16:32;99870.59;;;2.82;91.04
12676;BME280;63820;65.654;21.944;2023-02-13T01:19:17;99880.00;;;2.83;91.28
12676;BME280;63820;65.654;21.944;2023-02-13T01:22:01;99884.31;;;2.81;92.45
12676;BME280;63820;65.654;21.944;2023-02-13T01:24:45;99886.69;;;2.90;90.17
12676;BME280;63820;65.654;21.944;2023-02-13T01:27:29;99903.72;;;2.94;89.61
12676;BME280;63820;65.654;21.944;2023-02-13T01:30:14;99895.19;;;2.93;90.88
12676;BME280;63820;65.654;21.944;2023-02-13T01:32:59;99902.84;;;2.95;90.67
12676;BME280;63820;65.654;21.944;2023-02-13T01:35:43;99907.25;;;2.90;91.39
12676;BME280;63820;65.654;21.944;2023-02-13T01:38:27;99921.75;;;2.92;91.16
12676;BME280;63820;65.654;21.944;2023-02-13T01:41:11;99899.63;;;2.85;92.79
12676;BME280;63820;65.654;21.944;2023-02-13T01:43:58;99874.75;;;2.87;91.31
12676;BME280;63820;65.654;21.944;2023-02-13T01:46:43;99900.66;;;3.15;90.16
12676;BME280;63820;65.654;21.944;2023-02-13T01:49:27;99909.56;;;3.02;90.93
12676;BME280;63820;65.654;21.944;2023-02-13T01:52:12;99913.25;;;3.27;87.51
12676;BME280;63820;65.654;21.944;2023-02-13T01:54:56;99907.25;;;3.27;87.18
12676;BME280;63820;65.654;21.944;2023-02-13T01:57:44;99901.19;;;3.29;89.37
12676;BME280;63820;65.654;21.944;2023-02-13T02:00:30;99909.81;;;3.27;89.13
12676;BME280;63820;65.654;21.944;2023-02-13T02:03:26;99916.06;;;3.17;90.27
12676;BME280;63820;65.654;21.944;2023-02-13T02:06:18;99910.28;;;3.07;91.29
12676;BME280;63820;65.654;21.944;2023-02-13T02:09:11;99943.88;;;3.00;92.86
12676;BME280;63820;65.654;21.944;2023-02-13T02:12:08;99924.47;;;2.85;92.83
12676;BME280;63820;65.654;21.944;2023-02-13T02:14:55;99918.38;;;2.90;91.22
12676;BME280;63820;65.654;21.944;2023-02-13T02:17:40;99929.09;;;3.09;90.10
12676;BME280;63820;65.654;21.944;2023-02-13T02:26:38;99927.91;;;2.84;92.94
12676;BME280;63820;65.654;21.944;2023-02-13T02:32:42;99916.69;;;2.89;91.84
12676;BME280;63820;65.654;21.944;2023-02-13T02:41:34;99924.34;;;2.91;93.52
12676;BME280;63820;65.654;21.944;2023-02-13T02:51:11;99897.22;;;2.78;94.47
12676;BME280;63820;65.654;21.944;2023-02-13T02:56:47;99888.59;;;2.82;95.06
12676;BME280;63820;65.654;21.944;2023-02-13T02:59:32;99885.16;;;2.81;95.45
12676;BME280;63820;65.654;21.944;2023-02-13T03:02:38;99919.25;;;2.89;95.08
12676;BME280;63820;65.654;21.944;2023-02-13T03:05:44;99912.72;;;2.73;98.82
12676;BME280;63820;65.654;21.944;2023-02-13T03:08:54;99931.00;;;2.58;100.00
12676;BME280;63820;65.654;21.944;2023-02-13T03:12:01;99940.56;;;2.51;100.00
12676;BME280;63820;65.654;21.944;2023-02-13T03:15:05;99952.56;;;2.49;100.00
12676;BME280;63820;65.654;21.944;2023-02-13T03:17:49;99946.63;;;2.47;100.00
12676;BME280;63820;65.654;21.944;2023-02-13T03:21:16;99953.66;;;2.38;100.00
12676;BME280;63820;65.654;21.944;2023-02-13T03:24:44;99948.69;;;2.28;100.00
12676;BME280;63820;65.654;21.944;2023-02-13T03:36:58;99942.13;;;2.12;100.00
12676;BME280;63820;65.654;21.944;2023-02-13T03:40:06;99942.13;;;2.12;100.00
12676;BME280;63820;65.654;21.944;2023-02-13T03:42:56;99942.75;;;2.25;100.00
12676;BME280;63820;65.654;21.944;2023-02-13T03:45:46;99931.53;;;2.30;100.00
12676;BME280;63820;65.654;21.944;2023-02-13T03:48:39;99944.97;;;2.43;99.94
12676;BME280;63820;65.654;21.944;2023-02-13T03:57:44;99966.34;;;2.45;100.00
12676;BME280;63820;65.654;21.944;2023-02-13T04:00:54;99965.25;;;2.57;99.24
12676;BME280;63820;65.654;21.944;2023-02-13T04:07:00;99981.03;;;2.37;100.00
12676;BME280;63820;65.654;21.944;2023-02-13T04:09:46;99991.38;;;2.33;100.00
12676;BME280;63820;65.654;21.944;2023-02-13T04:15:54;99996.72;;;2.20;100.00
12676;BME280;63820;65.654;21.944;2023-02-13T04:18:40;99999.31;;;2.19;100.00
12676;BME280;63820;65.654;21.944;2023-02-13T04:21:24;99985.59;;;2.20;100.00
12676;BME280;63820;65.654;21.944;2023-02-13T04:24:09;99988.16;;;2.21;100.00
12676;BME280;63820;65.654;21.944;2023-02-13T04:26:53;99993.88;;;2.37;100.00
12676;BME280;63820;65.654;21.944;2023-02-13T04:29:38;100004.97;;;2.38;100.00
12676;BME280;63820;65.654;21.944;2023-02-13T04:32:22;100006.84;;;2.29;100.00
12676;BME280;63820;65.654;21.944;2023-02-13T04:35:06;100004.34;;;2.25;100.00
12676;BME280;63820;65.654;21.944;2023-02-13T04:37:52;100019.59;;;2.34;100.00
12676;BME280;63820;65.654;21.944;2023-02-13T04:40:36;100017.16;;;2.26;100.00
12676;BME280;63820;65.654;21.944;2023-02-13T04:43:20;100017.28;;;2.19;100.00
12676;BME280;63820;65.654;21.944;2023-02-13T04:46:04;100001.78;;;2.25;100.00
12676;BME280;63820;65.654;21.944;2023-02-13T04:48:48;100003.28;;;2.37;100.00
12676;BME280;63820;65.654;21.944;2023-02-13T04:51:32;100012.75;;;2.33;100.00
12676;BME280;63820;65.654;21.944;2023-02-13T04:54:16;100009.22;;;2.40;100.00
12676;BME280;63820;65.654;21.944;2023-02-13T04:57:00;100018.88;;;2.26;100.00
12676;BME280;63820;65.654;21.944;2023-02-13T04:59:44;100017.72;;;2.42;100.00
12676;BME280;63820;65.654;21.944;2023-02-13T05:02:30;100026.41;;;2.35;100.00
12676;BME280;63820;65.654;21.944;2023-02-13T05:05:14;100023.97;;;2.27;100.00
12676;BME280;63820;65.654;21.944;2023-02-13T05:07:59;100023.03;;;2.33;100.00
12676;BME280;63820;65.654;21.944;2023-02-13T05:10:43;100022.75;;;2.48;100.00
12676;BME280;63820;65.654;21.944;2023-02-13T05:13:27;100027.09;;;2.45;100.00
12676;BME280;63820;65.654;21.944;2023-02-13T05:16:12;100033.06;;;2.45;100.00
12676;BME280;63820;65.654;21.944;2023-02-13T05:18:56;100039.09;;;2.44;100.00
12676;BME280;63820;65.654;21.944;2023-02-13T05:21:41;100050.28;;;2.40;99.93
12676;BME280;63820;65.654;21.944;2023-02-13T05:24:44;100046.03;;;2.39;100.00
12676;BME280;63820;65.654;21.944;2023-02-13T05:27:28;100041.91;;;2.29;100.00
12676;BME280;63820;65.654;21.944;2023-02-13T05:30:12;100035.19;;;2.22;100.00
12676;BME280;63820;65.654;21.944;2023-02-13T05:32:57;100036.09;;;2.18;100.00
12676;BME280;63820;65.654;21.944;2023-02-13T05:35:41;100034.22;;;2.29;100.00
12676;BME280;63820;65.654;21.944;2023-02-13T05:38:25;100037.63;;;2.29;100.00
12676;BME280;63820;65.654;21.944;2023-02-13T05:41:09;100026.63;;;2.23;100.00
12676;BME280;63820;65.654;21.944;2023-02-13T05:43:56;100021.59;;;2.17;100.00
12676;BME280;63820;65.654;21.944;2023-02-13T05:46:41;100026.47;;;2.32;100.00
12676;BME280;63820;65.654;21.944;2023-02-13T05:49:26;100023.91;;;2.30;100.00
12676;BME280;63820;65.654;21.944;2023-02-13T05:52:10;100040.06;;;2.37;100.00
12676;BME280;63820;65.654;21.944;2023-02-13T05:54:54;100028.97;;;2.35;100.00
12676;BME280;63820;65.654;21.944;2023-02-13T05:57:38;100028.22;;;2.28;100.00
12676;BME280;63820;65.654;21.944;2023-02-13T06:00:22;100040.06;;;2.37;100.00
12676;BME280;63820;65.654;21.944;2023-02-13T06:03:06;100055.56;;;2.31;100.00
12676;BME280;63820;65.654;21.944;2023-02-13T06:05:51;100042.06;;;2.20;100.00
12676;BME280;63820;65.654;21.944;2023-02-13T06:08:36;100064.34;;;2.18;100.00
12676;BME280;63820;65.654;21.944;2023-02-13T06:11:20;100064.31;;;2.19;100.00
12676;BME280;63820;65.654;21.944;2023-02-13T06:14:04;100054.13;;;2.15;100.00
12676;BME280;63820;65.654;21.944;2023-02-13T06:16:48;100068.63;;;2.17;100.00
12676;BME280;63820;65.654;21.944;2023-02-13T06:19:32;100080.78;;;2.08;100.00
12676;BME280;63820;65.654;21.944;2023-02-13T06:22:16;100091.16;;;1.99;100.00
12676;BME280;63820;65.654;21.944;2023-02-13T06:25:01;100098.06;;;1.95;100.00
12676;BME280;63820;65.654;21.944;2023-02-13T06:27:45;100101.31;;;2.06;100.00
12676;BME280;63820;65.654;21.944;2023-02-13T06:30:29;100108.81;;;2.18;100.00
12676;BME280;63820;65.654;21.944;2023-02-13T06:33:14;100103.75;;;2.14;100.00
12676;BME280;63820;65.654;21.944;2023-02-13T06:35:58;100101.50;;;2.48;96.49
12676;BME280;63820;65.654;21.944;2023-02-13T06:38:42;100092.69;;;2.62;94.52
12676;BME280;63820;65.654;21.944;2023-02-13T06:41:27;100082.22;;;2.75;92.35
12676;BME280;63820;65.654;21.944;2023-02-13T06:44:11;100087.44;;;2.69;94.24
12676;BME280;63820;65.654;21.944;2023-02-13T06:46:55;100090.91;;;2.66;94.67
12676;BME280;63820;65.654;21.944;2023-02-13T06:49:39;100078.06;;;2.66;94.10
12676;BME280;63820;65.654;21.944;2023-02-13T06:52:22;100088.28;;;2.69;93.59
12676;BME280;63820;65.654;21.944;2023-02-13T06:55:07;100079.03;;;2.60;95.55
12676;BME280;63820;65.654;21.944;2023-02-13T06:57:51;100079.09;;;2.57;94.48
12676;BME280;63820;65.654;21.944;2023-02-13T07:00:35;100086.53;;;2.73;92.37
12676;BME280;63820;65.654;21.944;2023-02-13T07:03:20;100088.94;;;2.82;91.33
12676;BME280;63820;65.654;21.944;2023-02-13T07:06:04;100089.19;;;2.67;95.00
12676;BME280;63820;65.654;21.944;2023-02-13T07:08:49;100089.31;;;2.60;92.52
12676;BME280;63820;65.654;21.944;2023-02-13T07:11:38;100087.75;;;2.50;94.98
12676;BME280;63820;65.654;21.944;2023-02-13T07:14:22;100094.56;;;2.53;95.38
12676;BME280;63820;65.654;21.944;2023-02-13T07:17:07;100085.13;;;2.53;94.92
12676;BME280;63820;65.654;21.944;2023-02-13T07:19:51;100101.97;;;2.70;90.20
12676;BME280;63820;65.654;21.944;2023-02-13T07:22:36;100100.38;;;2.64;92.28
12676;BME280;63820;65.654;21.944;2023-02-13T07:25:20;100084.28;;;2.54;92.80
12676;BME280;63820;65.654;21.944;2023-02-13T07:28:05;100088.44;;;2.61;90.01
12676;BME280;63820;65.654;21.944;2023-02-13T07:30:49;100094.34;;;2.67;89.12
12676;BME280;63820;65.654;21.944;2023-02-13T07:33:33;100106.31;;;2.68;90.03
12676;BME280;63820;65.654;21.944;2023-02-13T07:36:18;100095.28;;;2.61;89.28
12676;BME280;63820;65.654;21.944;2023-02-13T07:39:02;100107.78;;;2.81;86.75
12676;BME280;63820;65.654;21.944;2023-02-13T07:41:46;100106.97;;;2.79;86.59
12676;BME280;63820;65.654;21.944;2023-02-13T07:44:30;100118.09;;;2.79;86.44
12676;BME280;63820;65.654;21.944;2023-02-13T07:47:14;100133.31;;;2.90;85.09
12676;BME280;63820;65.654;21.944;2023-02-13T07:49:59;100127.28;;;2.92;85.42
12676;BME280;63820;65.654;21.944;2023-02-13T07:52:43;100139.06;;;3.04;83.02
12676;BME280;63820;65.654;21.944;2023-02-13T07:55:28;100143.44;;;2.99;83.56
12676;BME280;63820;65.654;21.944;2023-02-13T07:58:12;100140.16;;;2.91;83.81
12676;BME280;63820;65.654;21.944;2023-02-13T08:00:56;100153.69;;;2.99;82.59
12676;BME280;63820;65.654;21.944;2023-02-13T08:03:41;100152.78;;;3.03;81.62
12676;BME280;63820;65.654;21.944;2023-02-13T08:06:25;100166.34;;;3.11;81.49
12676;BME280;63820;65.654;21.944;2023-02-13T08:09:17;100171.38;;;3.16;78.83
12676;BME280;63820;65.654;21.944;2023-02-13T08:12:21;100170.38;;;3.23;79.57
12676;BME280;63820;65.654;21.944;2023-02-13T08:15:06;100163.34;;;3.33;78.46
12676;BME280;63820;65.654;21.944;2023-02-13T08:17:50;100173.69;;;3.29;78.31
12676;BME280;63820;65.654;21.944;2023-02-13T08:20:34;100174.63;;;3.24;79.17
12676;BME280;63820;65.654;21.944;2023-02-13T08:23:18;100197.06;;;3.62;77.89
12676;BME280;63820;65.654;21.944;2023-02-13T08:26:02;100194.63;;;3.98;74.47
12676;BME280;63820;65.654;21.944;2023-02-13T08:28:47;100211.59;;;4.45;73.47
12676;BME280;63820;65.654;21.944;2023-02-13T08:31:31;100196.66;;;4.96;69.27
12676;BME280;63820;65.654;21.944;2023-02-13T08:34:15;100206.38;;;4.85;70.81
12676;BME280;63820;65.654;21.944;2023-02-13T08:37:00;100211.25;;;4.96;71.26
12676;BME280;63820;65.654;21.944;2023-02-13T08:39:45;100201.50;;;6.03;66.57
12676;BME280;63820;65.654;21.944;2023-02-13T08:42:29;100207.06;;;7.26;63.67
12676;BME280;63820;65.654;21.944;2023-02-13T08:45:13;100201.59;;;7.58;59.93
12676;BME280;63820;65.654;21.944;2023-02-13T08:47:58;100226.63;;;8.29;59.64
12676;BME280;63820;65.654;21.944;2023-02-13T08:50:42;100252.09;;;8.63;56.36
12676;BME280;63820;65.654;21.944;2023-02-13T08:53:26;100251.63;;;9.38;53.44
12676;BME280;63820;65.654;21.944;2023-02-13T08:56:10;100281.31;;;9.73;53.10
12676;BME280;63820;65.654;21.944;2023-02-13T08:58:55;100296.63;;;10.57;50.60
12676;BME280;63820;65.654;21.944;2023-02-13T09:01:40;100300.97;;;10.57;49.65
12676;BME280;63820;65.654;21.944;2023-02-13T09:04:24;100292.28;;;10.94;48.60
12676;BME280;63820;65.654;21.944;2023-02-13T09:07:08;100303.88;;;10.32;49.63
12676;BME280;63820;65.654;21.944;2023-02-13T09:09:52;100289.81;;;11.27;48.16
12676;BME280;63820;65.654;21.944;2023-02-13T09:12:36;100297.53;;;10.75;48.63
12676;BME280;63820;65.654;21.944;2023-02-13T09:15:20;100293.19;;;11.11;47.60
12676;BME280;63820;65.654;21.944;2023-02-13T09:18:06;100307.84;;;10.95;48.39
12676;BME280;63820;65.654;21.944;2023-02-13T09:20:56;100318.16;;;11.50;47.57
12676;BME280;63820;65.654;21.944;2023-02-13T09:23:40;100323.59;;;11.45;47.41
12676;BME280;63820;65.654;21.944;2023-02-13T09:26:25;100329.88;;;10.88;48.30
12676;BME280;63820;65.654;21.944;2023-02-13T09:29:09;100331.06;;;11.36;47.96
12676;BME280;63820;65.654;21.944;2023-02-13T09:31:54;100337.09;;;11.36;47.81
12676;BME280;63820;65.654;21.944;2023-02-13T09:34:38;100322.63;;;11.31;47.03
12676;BME280;63820;65.654;21.944;2023-02-13T09:37:22;100310.72;;;11.60;46.31
12676;BME280;63820;65.654;21.944;2023-02-13T09:40:30;100310.66;;;11.27;47.67
12676;BME280;63820;65.654;21.944;2023-02-13T09:46:24;100342.69;;;9.75;50.06
12676;BME280;63820;65.654;21.944;2023-02-13T09:49:14;100343.09;;;10.65;49.60
12676;BME280;63820;65.654;21.944;2023-02-13T09:52:00;100355.13;;;10.86;48.10
12676;BME280;63820;65.654;21.944;2023-02-13T09:54:44;100361.78;;;9.95;49.32
12676;BME280;63820;65.654;21.944;2023-02-13T10:00:29;100380.22;;;8.09;52.86
12676;BME280;63820;65.654;21.944;2023-02-13T10:03:50;100374.41;;;7.78;55.46
12676;BME280;63820;65.654;21.944;2023-02-13T10:06:43;100375.16;;;7.01;56.95
12676;BME280;63820;65.654;21.944;2023-02-13T10:09:50;100370.06;;;6.39;57.99
12676;BME280;63820;65.654;21.944;2023-02-13T10:15:45;100396.50;;;6.17;60.67
12676;BME280;63820;65.654;21.944;2023-02-13T10:18:52;100409.00;;;6.93;60.51
12676;BME280;63820;65.654;21.944;2023-02-13T10:21:48;100408.72;;;7.84;57.12
12676;BME280;63820;65.654;21.944;2023-02-13T10:24:51;100425.91;;;8.62;55.17
12676;BME280;63820;65.654;21.944;2023-02-13T10:27:41;100436.91;;;9.37;53.42
12676;BME280;63820;65.654;21.944;2023-02-13T10:30:31;100439.44;;;9.60;51.53
12676;BME280;63820;65.654;21.944;2023-02-13T10:33:21;100455.69;;;10.29;50.53
12676;BME280;63820;65.654;21.944;2023-02-13T10:39:11;100466.22;;;11.42;46.47
12676;BME280;63820;65.654;21.944;2023-02-13T10:48:16;100471.44;;;11.04;46.16
12676;BME280;63820;65.654;21.944;2023-02-13T10:51:19;100481.78;;;11.06;45.61
12676;BME280;63820;65.654;21.944;2023-02-13T11:00:02;100508.13;;;12.61;43.27
12676;BME280;63820;65.654;21.944;2023-02-13T11:02:47;100514.44;;;14.02;41.24
12676;BME280;63820;65.654;21.944;2023-02-13T11:05:37;100516.44;;;13.51;40.84
12676;BME280;63820;65.654;21.944;2023-02-13T11:08:32;100510.28;;;13.03;42.45
12676;BME280;63820;65.654;21.944;2023-02-13T11:11:32;100524.94;;;12.73;42.82
12676;BME280;63820;65.654;21.944;2023-02-13T11:14:22;100517.28;;;12.01;43.41
12676;BME280;63820;65.654;21.944;2023-02-13T11:17:16;100549.50;;;11.62;44.77
12676;BME280;63820;65.654;21.944;2023-02-13T11:20:24;100554.72;;;11.81;43.93
12676;BME280;63820;65.654;21.944;2023-02-13T11:23:34;100559.66;;;12.23;43.28
12676;BME280;63820;65.654;21.944;2023-02-13T11:26:23;100569.13;;;11.69;43.41
12676;BME280;63820;65.654;21.944;2023-02-13T11:32:17;100601.56;;;11.83;43.03
12676;BME280;63820;65.654;21.944;2023-02-13T11:35:32;100600.50;;;12.41;42.82
12676;BME280;63820;65.654;21.944;2023-02-13T11:38:22;100599.78;;;11.64;42.31
12676;BME280;63820;65.654;21.944;2023-02-13T11:41:12;100614.16;;;11.15;44.42
12676;BME280;63820;65.654;21.944;2023-02-13T11:44:00;100626.16;;;10.99;44.48
12676;BME280;63820;65.654;21.944;2023-02-13T11:46:47;100626.22;;;10.97;44.79
12676;BME280;63820;65.654;21.944;2023-02-13T11:49:35;100641.31;;;11.09;45.14
12676;BME280;63820;65.654;21.944;2023-02-13T11:52:37;100620.13;;;11.37;44.11
12676;BME280;63820;65.654;21.944;2023-02-13T12:04:15;100650.00;;;10.68;45.09
12676;BME280;63820;65.654;21.944;2023-02-13T12:07:09;100669.16;;;10.23;45.81
12676;BME280;63820;65.654;21.944;2023-02-13T12:12:52;100681.91;;;9.59;47.71
12676;BME280;63820;65.654;21.944;2023-02-13T12:15:37;100686.09;;;9.63;48.29
12676;BME280;63820;65.654;21.944;2023-02-13T12:18:33;100707.88;;;8.57;49.74
12676;BME280;63820;65.654;21.944;2023-02-13T12:24:47;100694.47;;;9.23;48.63
12676;BME280;63820;65.654;21.944;2023-02-13T12:31:11;100729.19;;;9.44;48.32
12676;BME280;63820;65.654;21.944;2023-02-13T12:37:18;100728.50;;;9.64;47.87
12676;BME280;63820;65.654;21.944;2023-02-13T12:43:31;100749.03;;;9.22;48.54
12676;BME280;63820;65.654;21.944;2023-02-13T13:01:51;100802.34;;;6.84;54.35
12676;BME280;63820;65.654;21.944;2023-02-13T13:04:49;100806.47;;;6.52;55.75
12676;BME280;63820;65.654;21.944;2023-02-13T13:28:42;100860.13;;;5.46;60.14
12676;BME280;63820;65.654;21.944;2023-02-13T13:31:27;100873.03;;;5.44;59.99
12676;BME280;63820;65.654;21.944;2023-02-13T13:34:16;100885.25;;;5.33;59.98
12676;BME280;63820;65.654;21.944;2023-02-13T13:52:19;100932.44;;;4.80;63.70
12676;BME280;63820;65.654;21.944;2023-02-13T13:55:04;100933.19;;;4.88;63.51
12676;BME280;63820;65.654;21.944;2023-02-13T13:57:59;100947.81;;;4.86;63.18
12676;BME280;63820;65.654;21.944;2023-02-13T14:00:43;100953.84;;;4.85;63.64
12676;BME280;63820;65.654;21.944;2023-02-13T14:03:35;100953.94;;;4.79;64.12
12676;BME280;63820;65.654;21.944;2023-02-13T14:06:22;100972.09;;;4.68;65.13
12676;BME280;63820;65.654;21.944;2023-02-13T14:09:37;100982.50;;;4.59;64.93
12676;BME280;63820;65.654;21.944;2023-02-13T14:15:48;100994.75;;;4.36;65.52
12676;BME280;63820;65.654;21.944;2023-02-13T14:18:33;101000.78;;;4.33;66.67
12676;BME280;63820;65.654;21.944;2023-02-13T14:21:21;101014.59;;;4.26;66.40
12676;BME280;63820;65.654;21.944;2023-02-13T14:24:10;101027.50;;;4.20;67.28
12676;BME280;63820;65.654;21.944;2023-02-13T14:26:55;101041.41;;;4.04;68.57
12676;BME280;63820;65.654;21.944;2023-02-13T14:29:46;101043.13;;;4.02;68.64
12676;BME280;63820;65.654;21.944;2023-02-13T14:32:33;101049.22;;;3.88;69.47
12676;BME280;63820;65.654;21.944;2023-02-13T14:35:28;101038.13;;;3.80;69.37
12676;BME280;63820;65.654;21.944;2023-02-13T14:38:23;101072.44;;;3.79;70.83
12676;BME280;63820;65.654;21.944;2023-02-13T14:44:48;101079.38;;;3.65;70.87
12676;BME280;63820;65.654;21.944;2023-02-13T14:47:40;101094.81;;;3.65;70.69
12676;BME280;63820;65.654;21.944;2023-02-13T14:50:28;101102.56;;;3.62;72.41
12676;BME280;63820;65.654;21.944;2023-02-13T14:56:11;101129.19;;;3.47;72.47
12676;BME280;63820;65.654;21.944;2023-02-13T14:59:09;101115.47;;;3.51;72.47
12676;BME280;63820;65.654;21.944;2023-02-13T15:02:24;101125.78;;;3.44;73.16
12676;BME280;63820;65.654;21.944;2023-02-13T15:05:15;101141.16;;;3.60;72.37
12676;BME280;63820;65.654;21.944;2023-02-13T15:08:13;101147.22;;;3.46;73.54
12676;BME280;63820;65.654;21.944;2023-02-13T15:10:58;101166.97;;;3.35;74.33
12676;BME280;63820;65.654;21.944;2023-02-13T15:13:42;101171.28;;;3.23;74.32
12676;BME280;63820;65.654;21.944;2023-02-13T15:16:27;101177.28;;;3.22;74.73
12676;BME280;63820;65.654;21.944;2023-02-13T15:19:16;101184.13;;;3.29;75.25
12676;BME280;63820;65.654;21.944;2023-02-13T15:22:02;101185.84;;;3.18;75.02
12676;BME280;63820;65.654;21.944;2023-02-13T15:24:48;101197.84;;;3.21;76.04
12676;BME280;63820;65.654;21.944;2023-02-13T15:27:39;101221.00;;;3.13;75.74
12676;BME280;63820;65.654;21.944;2023-02-13T15:30:27;101231.31;;;3.10;76.28
12676;BME280;63820;65.654;21.944;2023-02-13T15:33:20;101237.31;;;3.02;76.93
12676;BME280;63820;65.654;21.944;2023-02-13T15:36:05;101251.88;;;3.01;76.17
12676;BME280;63820;65.654;21.944;2023-02-13T15:38:58;101258.72;;;2.98;76.97
12676;BME280;63820;65.654;21.944;2023-02-13T15:41:49;101268.13;;;2.83;78.08
12676;BME280;63820;65.654;21.944;2023-02-13T15:44:36;101269.84;;;2.87;77.40
12676;BME280;63820;65.654;21.944;2023-02-13T15:47:30;101269.81;;;2.72;78.59
12676;BME280;63820;65.654;21.944;2023-02-13T15:50:23;101285.25;;;2.71;78.09
12676;BME280;63820;65.654;21.944;2023-02-13T15:53:14;101295.50;;;2.60;79.38
12676;BME280;63820;65.654;21.944;2023-02-13T15:56:02;101307.47;;;2.61;78.45
12676;BME280;63820;65.654;21.944;2023-02-13T15:58:46;101310.91;;;2.61;78.35
12676;BME280;63820;65.654;21.944;2023-02-13T16:01:31;101321.19;;;2.68;77.97
12676;BME280;63820;65.654;21.944;2023-02-13T16:04:17;101316.94;;;2.80;78.11
12676;BME280;63820;65.654;21.944;2023-02-13T16:07:10;101328.97;;;2.93;77.07
12676;BME280;63820;65.654;21.944;2023-02-13T16:10:35;101332.38;;;2.85;78.00
12676;BME280;63820;65.654;21.944;2023-02-13T16:13:19;101341.78;;;2.77;77.91
12676;BME280;63820;65.654;21.944;2023-02-13T16:16:08;101352.91;;;2.79;78.35
12676;BME280;63820;65.654;21.944;2023-02-13T16:18:53;101355.50;;;2.91;78.05
12676;BME280;63820;65.654;21.944;2023-02-13T16:21:38;101368.34;;;2.86;77.58
12676;BME280;63820;65.654;21.944;2023-02-13T16:24:23;101385.50;;;2.92;77.31
12676;BME280;63820;65.654;21.944;2023-02-13T16:27:12;101400.91;;;2.83;78.42
12676;BME280;63820;65.654;21.944;2023-02-13T16:30:00;101417.16;;;2.80;77.63
12676;BME280;63820;65.654;21.944;2023-02-13T16:32:45;101419.69;;;2.73;78.94
12676;BME280;63820;65.654;21.944;2023-02-13T16:35:32;101415.38;;;2.62;79.97
12676;BME280;63820;65.654;21.944;2023-02-13T16:44:03;101442.88;;;2.89;77.91
12676;BME280;63820;65.654;21.944;2023-02-13T16:47:00;101454.00;;;2.84;78.19
12676;BME280;63820;65.654;21.944;2023-02-13T16:49:50;101461.72;;;2.84;78.99
12676;BME280;63820;65.654;21.944;2023-02-13T16:52:36;101466.81;;;2.75;78.79
12676;BME280;63820;65.654;21.944;2023-02-13T16:55:20;101485.66;;;2.77;79.27
12676;BME280;63820;65.654;21.944;2023-02-13T16:58:16;101490.66;;;2.52;80.94
12676;BME280;63820;65.654;21.944;2023-02-13T17:01:02;101508.59;;;2.43;81.53
12676;BME280;63820;65.654;21.944;2023-02-13T17:03:47;101518.91;;;2.49;82.04
12676;BME280;63820;65.654;21.944;2023-02-13T17:06:31;101519.75;;;2.48;82.01
12676;BME280;63820;65.654;21.944;2023-02-13T17:09:16;101525.81;;;2.59;81.13
12676;BME280;63820;65.654;21.944;2023-02-13T17:12:00;101527.44;;;2.45;83.18
12676;BME280;63820;65.654;21.944;2023-02-13T17:14:44;101545.22;;;2.21;85.45
12676;BME280;63820;65.654;21.944;2023-02-13T17:17:30;101551.03;;;1.99;87.40
12676;BME280;63820;65.654;21.944;2023-02-13T17:20:17;101561.03;;;1.73;89.71
12676;BME280;63820;65.654;21.944;2023-02-13T17:23:05;101566.75;;;1.49;92.73
12676;BME280;63820;65.654;21.944;2023-02-13T17:25:51;101584.72;;;1.49;93.33
12676;BME280;63820;65.654;21.944;2023-02-13T17:28:36;101592.25;;;1.37;95.22